METAR AND TAF INFORMATION
METAR FOR UATT
ADDS - METARS form results

(0818 UTC 26 January 2020)
Data provider http://aviationweather.gov/metar/data/
 
METAR text: UATT 260800Z 25011MPS 1400 R13/1400D SN BLSN BKN009 OVC024 M01/M02 Q0991 R13/590335 NOSIG RMK QFE724/0965
Conditions at: UATT (AKTJUBINSK , KZ) observed 0800 UTC 26 January 2020
Temperature: -1.0°C (30°F)
Dewpoint: -2.0°C (28°F) [RH = 93%]
Pressure (altimeter): 29.26 inches Hg (991.0 mb)
Winds: from the WSW (250 degrees) at 24 MPH (21 knots; 10.8 m/s)
Visibility: 0.87 miles (1.40 km)
Ceiling: 900 feet AGL
Clouds: broken clouds at 900 feet AGL
overcast cloud deck at 2400 feet AGL
Weather: BLSN SN  (blowing snow, moderate snow)

METAR text: UATT 260730Z 25010MPS 1400 R13/1400N SN BLSN BKN007 OVC013 M01/M02 Q0991 R13/590335 NOSIG RMK QFE724/0966
Conditions at: UATT (AKTJUBINSK , KZ) observed 0730 UTC 26 January 2020
Temperature: -1.0°C (30°F)
Dewpoint: -2.0°C (28°F) [RH = 93%]
Pressure (altimeter): 29.26 inches Hg (991.0 mb)
Winds: from the WSW (250 degrees) at 22 MPH (19 knots; 9.8 m/s)
Visibility: 0.87 miles (1.40 km)
Ceiling: 700 feet AGL
Clouds: broken clouds at 700 feet AGL
overcast cloud deck at 1300 feet AGL
Weather: SN BLSN  (moderate snow, blowing snow)

Forecast for: UATT (AKTJUBINSK , KZ)
Text: TAF UATT 260500Z 2606/2706 23011MPS 3100 -SHSNRA BR BKN011CB TXM01/2611Z TNM10/2703Z
Forecast period: 0600 to 1800 UTC 26 January 2020
Forecast type: FROM: standard forecast or significant change
Winds: from the SW (230 degrees) at 24 MPH (21 knots; 10.8 m/s)
Visibility: 1.93 miles (3.11 km)
Ceiling: 1100 feet AGL
Clouds: broken clouds at 1100 feet AGL
Weather: -SHSN -SHRA BR  (light snow showers, light rain showers, mist)
Text: TEMPO 2606/2612 24016MPS 0500 BLSN VV004
Forecast period: 0600 to 1200 UTC 26 January 2020
Forecast type: TEMPORARY: The following changes expected for less than half the time period
Winds: from the WSW (240 degrees) at 36 MPH (31 knots; 15.9 m/s)
Visibility: 0.31 miles (0.50 km)
Ceiling: indefinite ceiling with vertical visibility of 400 feet AGL
Clouds: obscured sky
Weather: BLSN  (blowing snow)
Text: FM261800 29010MPS 3100 -SN BR BKN011
Forecast period: 1800 UTC 26 January 2020 to 0600 UTC 27 January 2020
Forecast type: FROM: standard forecast or significant change
Winds: from the WNW (290 degrees) at 22 MPH (19 knots; 9.8 m/s)
Visibility: 1.93 miles (3.11 km)
Ceiling: 1100 feet AGL
Clouds: broken clouds at 1100 feet AGL
Weather: -SN BR  (light snow, mist)

 AIRPORT MAP

 RUNWAY INFORMATION

 AIRPORT FREQUENCIES
Type APP Name APP Frequency 120.9 MHZ
Type TWR Name TWR Frequency 120.9 MHZ

 AIRPORT NEAR NAVIGATION AIDS
Type VOR-DME Name Aktyubinsk Frequency 113400 KHZ
Type NDB Name Aktyubinsk Lom Frequency 323 KHZ
Type NDB Name Aktyubinsk Lom Frequency 323 KHZ



2018 Air Astana Virtual Airline